sensor_id;sensor_type;location;lat;lon;timestamp;pressure;altitude;pressure_sealevel;temperature;humidity
9235;BME280;4652;42.716;23.218;2024-03-17T00:01:37;95018.72;;;3.26;79.54
9235;BME280;4652;42.716;23.218;2024-03-17T00:04:03;95015.38;;;3.25;79.68
9235;BME280;4652;42.716;23.218;2024-03-17T00:06:30;95012.44;;;3.22;79.08
9235;BME280;4652;42.716;23.218;2024-03-17T00:08:57;95010.91;;;3.02;79.14
9235;BME280;4652;42.716;23.218;2024-03-17T00:11:23;95008.50;;;3.08;78.98
9235;BME280;4652;42.716;23.218;2024-03-17T00:13:49;95011.16;;;3.01;79.22
9235;BME280;4652;42.716;23.218;2024-03-17T00:16:15;95008.84;;;3.11;78.73
9235;BME280;4652;42.716;23.218;2024-03-17T00:18:45;95004.72;;;3.10;79.20
9235;BME280;4652;42.716;23.218;2024-03-17T00:21:14;95007.81;;;3.00;79.80
9235;BME280;4652;42.716;23.218;2024-03-17T00:23:40;95008.38;;;2.84;79.65
9235;BME280;4652;42.716;23.218;2024-03-17T00:26:06;95011.03;;;2.77;79.51
9235;BME280;4652;42.716;23.218;2024-03-17T00:28:32;95007.81;;;2.82;78.91
9235;BME280;4652;42.716;23.218;2024-03-17T00:30:58;95006.53;;;2.91;78.29
9235;BME280;4652;42.716;23.218;2024-03-17T00:33:23;95006.78;;;2.71;79.81
9235;BME280;4652;42.716;23.218;2024-03-17T00:35:50;95002.06;;;2.68;79.52
9235;BME280;4652;42.716;23.218;2024-03-17T00:38:15;95004.34;;;2.76;78.81
9235;BME280;4652;42.716;23.218;2024-03-17T00:40:41;94999.53;;;2.80;78.51
9235;BME280;4652;42.716;23.218;2024-03-17T00:43:07;95008.03;;;2.80;78.73
9235;BME280;4652;42.716;23.218;2024-03-17T00:45:33;94999.34;;;2.82;78.10
9235;BME280;4652;42.716;23.218;2024-03-17T00:47:58;95003.69;;;2.81;78.45
9235;BME280;4652;42.716;23.218;2024-03-17T00:50:24;95005.25;;;2.82;79.24
9235;BME280;4652;42.716;23.218;2024-03-17T00:52:50;94999.72;;;2.67;79.58
9235;BME280;4652;42.716;23.218;2024-03-17T00:55:15;94995.06;;;2.57;80.37
9235;BME280;4652;42.716;23.218;2024-03-17T00:57:41;95000.38;;;2.62;79.75
9235;BME280;4652;42.716;23.218;2024-03-17T01:00:07;95004.25;;;2.65;80.75
9235;BME280;4652;42.716;23.218;2024-03-17T01:02:37;95003.28;;;2.66;79.61
9235;BME280;4652;42.716;23.218;2024-03-17T01:05:03;95008.72;;;2.39;80.38
9235;BME280;4652;42.716;23.218;2024-03-17T01:07:31;95012.25;;;2.38;80.25
9235;BME280;4652;42.716;23.218;2024-03-17T01:09:57;95004.84;;;2.48;79.87
9235;BME280;4652;42.716;23.218;2024-03-17T01:12:22;94999.34;;;2.45;79.18
9235;BME280;4652;42.716;23.218;2024-03-17T01:14:48;95008.63;;;2.46;79.38
9235;BME280;4652;42.716;23.218;2024-03-17T01:17:14;95003.00;;;2.37;80.34
9235;BME280;4652;42.716;23.218;2024-03-17T01:19:39;95013.75;;;2.46;79.90
9235;BME280;4652;42.716;23.218;2024-03-17T01:22:05;95010.53;;;2.32;80.14
9235;BME280;4652;42.716;23.218;2024-03-17T01:24:31;95008.25;;;2.24;79.59
9235;BME280;4652;42.716;23.218;2024-03-17T01:26:59;95011.31;;;2.14;79.78
9235;BME280;4652;42.716;23.218;2024-03-17T01:29:26;95008.44;;;2.22;79.73
9235;BME280;4652;42.716;23.218;2024-03-17T01:31:51;95004.91;;;2.23;79.90
9235;BME280;4652;42.716;23.218;2024-03-17T01:34:18;95007.34;;;2.37;78.99
9235;BME280;4652;42.716;23.218;2024-03-17T01:36:44;94999.72;;;2.30;79.60
9235;BME280;4652;42.716;23.218;2024-03-17T01:39:10;94994.50;;;2.37;79.41
9235;BME280;4652;42.716;23.218;2024-03-17T01:41:37;94999.41;;;2.38;79.33
9235;BME280;4652;42.716;23.218;2024-03-17T01:44:02;95000.00;;;2.40;79.50
9235;BME280;4652;42.716;23.218;2024-03-17T01:46:28;94996.06;;;2.38;79.25
9235;BME280;4652;42.716;23.218;2024-03-17T01:48:54;95001.63;;;2.34;78.77
9235;BME280;4652;42.716;23.218;2024-03-17T01:51:21;95000.91;;;2.27;79.50
9235;BME280;4652;42.716;23.218;2024-03-17T01:53:48;95004.84;;;2.30;79.18
9235;BME280;4652;42.716;23.218;2024-03-17T01:56:16;95002.13;;;2.25;78.47
9235;BME280;4652;42.716;23.218;2024-03-17T01:58:45;94998.19;;;2.22;78.50
9235;BME280;4652;42.716;23.218;2024-03-17T02:45:12;94997.53;;;1.65;81.13
9235;BME280;4652;42.716;23.218;2024-03-17T02:47:38;94985.13;;;1.62;81.52
9235;BME280;4652;42.716;23.218;2024-03-17T02:50:05;94988.06;;;1.66;82.06
9235;BME280;4652;42.716;23.218;2024-03-17T02:52:31;94982.41;;;1.82;82.24
9235;BME280;4652;42.716;23.218;2024-03-17T02:54:56;94990.56;;;1.97;82.46
9235;BME280;4652;42.716;23.218;2024-03-17T02:57:23;94997.25;;;1.98;81.15
9235;BME280;4652;42.716;23.218;2024-03-17T03:00:00;94991.03;;;1.88;81.95
9235;BME280;4652;42.716;23.218;2024-03-17T03:02:29;94994.09;;;1.96;81.26
9235;BME280;4652;42.716;23.218;2024-03-17T03:04:55;94993.69;;;1.99;80.40
9235;BME280;4652;42.716;23.218;2024-03-17T03:07:20;94986.84;;;1.93;80.89
9235;BME280;4652;42.716;23.218;2024-03-17T03:09:46;94982.81;;;1.79;81.41
9235;BME280;4652;42.716;23.218;2024-03-17T03:12:12;94983.84;;;1.71;81.93
9235;BME280;4652;42.716;23.218;2024-03-17T03:14:38;94974.19;;;1.73;81.92
9235;BME280;4652;42.716;23.218;2024-03-17T03:17:03;94987.94;;;1.79;81.38
9235;BME280;4652;42.716;23.218;2024-03-17T03:19:29;94980.44;;;1.59;81.81
9235;BME280;4652;42.716;23.218;2024-03-17T03:21:55;94989.63;;;1.67;81.67
9235;BME280;4652;42.716;23.218;2024-03-17T03:24:21;94985.66;;;1.71;81.22
9235;BME280;4652;42.716;23.218;2024-03-17T03:26:47;94980.94;;;1.68;81.24
9235;BME280;4652;42.716;23.218;2024-03-17T03:29:13;94983.84;;;1.71;81.00
9235;BME280;4652;42.716;23.218;2024-03-17T03:31:42;94988.69;;;1.61;82.31
9235;BME280;4652;42.716;23.218;2024-03-17T03:34:07;94988.44;;;1.69;82.63
9235;BME280;4652;42.716;23.218;2024-03-17T03:36:34;94987.00;;;1.73;81.71
9235;BME280;4652;42.716;23.218;2024-03-17T03:39:02;94993.44;;;1.82;80.99
9235;BME280;4652;42.716;23.218;2024-03-17T03:41:30;94986.00;;;1.74;81.09
9235;BME280;4652;42.716;23.218;2024-03-17T03:43:55;94988.13;;;1.59;81.94
9235;BME280;4652;42.716;23.218;2024-03-17T03:46:21;94996.78;;;1.58;82.04
9235;BME280;4652;42.716;23.218;2024-03-17T03:48:47;94988.13;;;1.59;81.48
9235;BME280;4652;42.716;23.218;2024-03-17T03:51:12;94993.66;;;1.56;81.03
9235;BME280;4652;42.716;23.218;2024-03-17T03:53:39;94999.50;;;1.63;81.62
9235;BME280;4652;42.716;23.218;2024-03-17T03:56:05;94995.69;;;1.72;81.67
9235;BME280;4652;42.716;23.218;2024-03-17T03:58:35;94999.88;;;1.67;82.41
9235;BME280;4652;42.716;23.218;2024-03-17T04:01:05;95002.25;;;1.61;82.80
9235;BME280;4652;42.716;23.218;2024-03-17T04:03:32;95003.22;;;1.67;83.32
9235;BME280;4652;42.716;23.218;2024-03-17T04:06:09;95015.38;;;1.47;82.24
9235;BME280;4652;42.716;23.218;2024-03-17T04:08:36;95016.94;;;1.48;82.16
9235;BME280;4652;42.716;23.218;2024-03-17T04:11:03;95009.56;;;1.33;82.62
9235;BME280;4652;42.716;23.218;2024-03-17T04:13:29;95007.94;;;1.38;82.92
9235;BME280;4652;42.716;23.218;2024-03-17T04:15:56;95011.47;;;1.44;82.98
9235;BME280;4652;42.716;23.218;2024-03-17T04:18:23;95016.25;;;1.34;81.91
9235;BME280;4652;42.716;23.218;2024-03-17T04:20:53;95022.53;;;1.38;82.89
9235;BME280;4652;42.716;23.218;2024-03-17T04:23:20;95021.66;;;1.51;82.44
9235;BME280;4652;42.716;23.218;2024-03-17T04:25:47;95026.91;;;1.62;82.87
9235;BME280;4652;42.716;23.218;2024-03-17T04:28:13;95028.22;;;1.72;83.21
9235;BME280;4652;42.716;23.218;2024-03-17T04:30:39;95025.38;;;1.80;82.54
9235;BME280;4652;42.716;23.218;2024-03-17T04:33:05;95026.63;;;1.71;82.64
9235;BME280;4652;42.716;23.218;2024-03-17T04:35:35;95031.28;;;1.55;82.58
9235;BME280;4652;42.716;23.218;2024-03-17T04:38:01;95038.41;;;1.53;82.77
9235;BME280;4652;42.716;23.218;2024-03-17T04:40:27;95036.19;;;1.57;82.49
9235;BME280;4652;42.716;23.218;2024-03-17T04:42:52;95044.00;;;1.69;82.71
9235;BME280;4652;42.716;23.218;2024-03-17T04:45:18;95046.56;;;1.69;82.33
9235;BME280;4652;42.716;23.218;2024-03-17T04:47:43;95046.41;;;1.89;81.67
9235;BME280;4652;42.716;23.218;2024-03-17T04:50:09;95047.94;;;1.96;81.62
9235;BME280;4652;42.716;23.218;2024-03-17T04:52:35;95055.31;;;1.86;81.54
9235;BME280;4652;42.716;23.218;2024-03-17T04:55:00;95053.63;;;1.98;82.52
9235;BME280;4652;42.716;23.218;2024-03-17T04:57:26;95061.69;;;2.02;82.92
9235;BME280;4652;42.716;23.218;2024-03-17T04:59:51;95059.44;;;2.12;82.30
9235;BME280;4652;42.716;23.218;2024-03-17T05:02:17;95063.25;;;2.28;82.30
9235;BME280;4652;42.716;23.218;2024-03-17T05:04:42;95063.84;;;2.48;81.88
9235;BME280;4652;42.716;23.218;2024-03-17T05:07:08;95072.13;;;2.69;81.50
9235;BME280;4652;42.716;23.218;2024-03-17T05:09:34;95075.19;;;2.96;79.93
9235;BME280;4652;42.716;23.218;2024-03-17T05:12:00;95081.25;;;3.01;80.20
9235;BME280;4652;42.716;23.218;2024-03-17T05:14:26;95079.75;;;3.12;79.63
9235;BME280;4652;42.716;23.218;2024-03-17T05:16:52;95090.63;;;3.26;79.45
9235;BME280;4652;42.716;23.218;2024-03-17T05:19:17;95086.75;;;3.35;80.07
9235;BME280;4652;42.716;23.218;2024-03-17T05:21:46;95081.72;;;3.59;79.13
9235;BME280;4652;42.716;23.218;2024-03-17T05:24:12;95079.09;;;3.77;78.25
9235;BME280;4652;42.716;23.218;2024-03-17T05:26:38;95085.81;;;3.90;78.67
9235;BME280;4652;42.716;23.218;2024-03-17T05:29:03;95082.50;;;4.01;79.43
9235;BME280;4652;42.716;23.218;2024-03-17T05:31:29;95089.56;;;4.17;77.12
9235;BME280;4652;42.716;23.218;2024-03-17T05:33:57;95094.03;;;4.45;77.15
9235;BME280;4652;42.716;23.218;2024-03-17T05:36:22;95093.72;;;4.54;77.56
9235;BME280;4652;42.716;23.218;2024-03-17T05:38:48;95087.56;;;4.78;76.91
9235;BME280;4652;42.716;23.218;2024-03-17T05:41:13;95091.56;;;4.98;76.74
9235;BME280;4652;42.716;23.218;2024-03-17T05:43:39;95085.56;;;5.21;77.45
9235;BME280;4652;42.716;23.218;2024-03-17T05:46:09;95093.84;;;5.51;75.60
9235;BME280;4652;42.716;23.218;2024-03-17T05:48:39;95093.56;;;5.93;75.51
9235;BME280;4652;42.716;23.218;2024-03-17T05:51:06;95083.47;;;6.42;73.24
9235;BME280;4652;42.716;23.218;2024-03-17T05:53:32;95093.25;;;7.18;70.47
9235;BME280;4652;42.716;23.218;2024-03-17T05:56:02;95096.13;;;8.30;66.32
9235;BME280;4652;42.716;23.218;2024-03-17T05:58:28;95096.84;;;9.63;62.59
9235;BME280;4652;42.716;23.218;2024-03-17T06:00:54;95089.34;;;10.79;57.64
9235;BME280;4652;42.716;23.218;2024-03-17T06:03:20;95093.78;;;11.98;54.28
9235;BME280;4652;42.716;23.218;2024-03-17T06:05:47;95092.91;;;13.00;50.51
9235;BME280;4652;42.716;23.218;2024-03-17T06:08:13;95099.34;;;14.31;46.99
9235;BME280;4652;42.716;23.218;2024-03-17T06:10:46;95094.50;;;15.81;44.05
9235;BME280;4652;42.716;23.218;2024-03-17T06:13:12;95102.19;;;16.37;41.54
9235;BME280;4652;42.716;23.218;2024-03-17T06:15:41;95103.06;;;16.54;41.09
9235;BME280;4652;42.716;23.218;2024-03-17T06:18:08;95101.88;;;16.83;40.17
9235;BME280;4652;42.716;23.218;2024-03-17T06:20:40;95107.53;;;17.47;38.88
9235;BME280;4652;42.716;23.218;2024-03-17T06:23:09;95105.84;;;17.12;39.27
9235;BME280;4652;42.716;23.218;2024-03-17T06:25:46;95108.75;;;17.50;39.43
9235;BME280;4652;42.716;23.218;2024-03-17T06:28:13;95107.03;;;16.97;40.69
9235;BME280;4652;42.716;23.218;2024-03-17T06:30:47;95115.44;;;16.54;41.11
9235;BME280;4652;42.716;23.218;2024-03-17T06:33:19;95119.88;;;16.31;40.58
9235;BME280;4652;42.716;23.218;2024-03-17T06:35:45;95126.22;;;16.75;39.68
9235;BME280;4652;42.716;23.218;2024-03-17T06:38:12;95129.59;;;17.46;37.74
9235;BME280;4652;42.716;23.218;2024-03-17T06:40:38;95124.47;;;17.81;36.36
9235;BME280;4652;42.716;23.218;2024-03-17T06:43:05;95122.94;;;17.98;35.92
9235;BME280;4652;42.716;23.218;2024-03-17T06:45:31;95118.44;;;18.07;36.55
9235;BME280;4652;42.716;23.218;2024-03-17T06:48:01;95120.53;;;17.61;37.08
9235;BME280;4652;42.716;23.218;2024-03-17T06:50:27;95130.16;;;15.27;41.33
9235;BME280;4652;42.716;23.218;2024-03-17T06:52:54;95132.28;;;15.53;42.41
9235;BME280;4652;42.716;23.218;2024-03-17T06:55:20;95126.78;;;17.34;38.19
9235;BME280;4652;42.716;23.218;2024-03-17T06:57:50;95128.19;;;17.40;38.11
9235;BME280;4652;42.716;23.218;2024-03-17T07:00:17;95138.72;;;18.24;36.40
9235;BME280;4652;42.716;23.218;2024-03-17T07:02:44;95125.56;;;18.15;35.66
9235;BME280;4652;42.716;23.218;2024-03-17T07:05:13;95126.94;;;18.64;35.43
9235;BME280;4652;42.716;23.218;2024-03-17T07:07:43;95121.97;;;20.08;32.94
9235;BME280;4652;42.716;23.218;2024-03-17T07:10:10;95122.53;;;22.51;28.61
9235;BME280;4652;42.716;23.218;2024-03-17T07:12:42;95128.75;;;22.87;27.16
9235;BME280;4652;42.716;23.218;2024-03-17T07:15:08;95127.88;;;23.94;26.08
9235;BME280;4652;42.716;23.218;2024-03-17T07:17:35;95138.31;;;22.92;27.24
9235;BME280;4652;42.716;23.218;2024-03-17T07:20:02;95135.50;;;19.47;32.14
9235;BME280;4652;42.716;23.218;2024-03-17T07:22:29;95137.63;;;18.51;34.13
9235;BME280;4652;42.716;23.218;2024-03-17T07:24:55;95140.78;;;17.12;37.38
9235;BME280;4652;42.716;23.218;2024-03-17T07:27:27;95133.44;;;15.60;40.50
9235;BME280;4652;42.716;23.218;2024-03-17T07:29:54;95136.25;;;15.23;41.81
9235;BME280;4652;42.716;23.218;2024-03-17T07:32:21;95134.16;;;16.84;38.85
9235;BME280;4652;42.716;23.218;2024-03-17T07:34:49;95135.47;;;18.18;36.59
9235;BME280;4652;42.716;23.218;2024-03-17T07:37:16;95148.94;;;17.99;36.06
9235;BME280;4652;42.716;23.218;2024-03-17T07:39:42;95138.97;;;15.86;39.18
9235;BME280;4652;42.716;23.218;2024-03-17T07:42:07;95138.00;;;14.15;45.41
9235;BME280;4652;42.716;23.218;2024-03-17T07:44:33;95148.88;;;13.42;47.63
9235;BME280;4652;42.716;23.218;2024-03-17T07:47:03;95142.69;;;12.11;50.77
9235;BME280;4652;42.716;23.218;2024-03-17T07:49:32;95142.97;;;12.09;50.89
9235;BME280;4652;42.716;23.218;2024-03-17T07:51:57;95137.78;;;11.44;52.37
9235;BME280;4652;42.716;23.218;2024-03-17T07:54:24;95139.75;;;11.08;53.60
9235;BME280;4652;42.716;23.218;2024-03-17T07:56:50;95140.59;;;10.58;54.02
9235;BME280;4652;42.716;23.218;2024-03-17T07:59:15;95144.56;;;9.62;57.19
9235;BME280;4652;42.716;23.218;2024-03-17T08:03:46;95148.94;;;9.51;59.28
9235;BME280;4652;42.716;23.218;2024-03-17T08:06:18;95147.81;;;9.26;59.00
9235;BME280;4652;42.716;23.218;2024-03-17T08:08:44;95145.97;;;9.22;59.58
9235;BME280;4652;42.716;23.218;2024-03-17T08:11:10;95142.81;;;9.88;58.64
9235;BME280;4652;42.716;23.218;2024-03-17T08:13:35;95146.28;;;10.49;56.42
9235;BME280;4652;42.716;23.218;2024-03-17T08:16:06;95138.59;;;12.00;52.94
9235;BME280;4652;42.716;23.218;2024-03-17T08:18:34;95138.22;;;14.19;46.87
9235;BME280;4652;42.716;23.218;2024-03-17T08:21:03;95131.38;;;16.21;40.26
9235;BME280;4652;42.716;23.218;2024-03-17T08:23:35;95132.56;;;15.79;41.26
9235;BME280;4652;42.716;23.218;2024-03-17T08:26:04;95131.59;;;15.33;43.41
9235;BME280;4652;42.716;23.218;2024-03-17T08:28:31;95125.50;;;15.38;42.17
9235;BME280;4652;42.716;23.218;2024-03-17T08:31:03;95125.41;;;15.29;43.03
9235;BME280;4652;42.716;23.218;2024-03-17T08:33:30;95126.66;;;15.18;43.79
9235;BME280;4652;42.716;23.218;2024-03-17T08:35:58;95128.50;;;15.73;42.32
9235;BME280;4652;42.716;23.218;2024-03-17T08:38:25;95117.69;;;15.88;41.40
9235;BME280;4652;42.716;23.218;2024-03-17T08:40:54;95110.63;;;16.11;40.59
9235;BME280;4652;42.716;23.218;2024-03-17T08:43:22;95108.13;;;16.06;41.47
9235;BME280;4652;42.716;23.218;2024-03-17T08:48:25;95112.31;;;15.29;43.88
9235;BME280;4652;42.716;23.218;2024-03-17T08:50:52;95103.34;;;16.08;41.89
9235;BME280;4652;42.716;23.218;2024-03-17T08:53:19;95098.59;;;16.77;40.74
9235;BME280;4652;42.716;23.218;2024-03-17T08:55:46;95099.81;;;17.02;39.07
9235;BME280;4652;42.716;23.218;2024-03-17T08:58:18;95104.09;;;17.38;38.65
9235;BME280;4652;42.716;23.218;2024-03-17T09:00:46;95104.81;;;17.79;37.16
9235;BME280;4652;42.716;23.218;2024-03-17T09:03:16;95098.16;;;17.81;36.88
9235;BME280;4652;42.716;23.218;2024-03-17T09:05:43;95086.63;;;16.94;38.95
9235;BME280;4652;42.716;23.218;2024-03-17T09:08:20;95093.47;;;17.69;38.00
9235;BME280;4652;42.716;23.218;2024-03-17T09:10:48;95085.66;;;18.13;37.85
9235;BME280;4652;42.716;23.218;2024-03-17T09:13:17;95087.97;;;18.06;36.77
9235;BME280;4652;42.716;23.218;2024-03-17T09:15:53;95090.59;;;17.31;36.98
9235;BME280;4652;42.716;23.218;2024-03-17T09:18:20;95086.13;;;16.61;40.13
9235;BME280;4652;42.716;23.218;2024-03-17T09:23:44;95085.78;;;17.16;38.18
9235;BME280;4652;42.716;23.218;2024-03-17T09:26:11;95081.53;;;16.97;41.38
9235;BME280;4652;42.716;23.218;2024-03-17T09:28:38;95077.22;;;17.01;39.04
9235;BME280;4652;42.716;23.218;2024-03-17T09:31:05;95067.16;;;16.86;41.69
9235;BME280;4652;42.716;23.218;2024-03-17T09:33:34;95071.28;;;17.27;38.50
9235;BME280;4652;42.716;23.218;2024-03-17T09:36:05;95060.94;;;17.22;38.01
9235;BME280;4652;42.716;23.218;2024-03-17T09:38:33;95059.19;;;16.46;38.79
9235;BME280;4652;42.716;23.218;2024-03-17T09:41:00;95060.66;;;16.61;37.39
9235;BME280;4652;42.716;23.218;2024-03-17T09:43:32;95059.97;;;16.47;39.02
9235;BME280;4652;42.716;23.218;2024-03-17T09:46:02;95060.97;;;15.92;41.15
9235;BME280;4652;42.716;23.218;2024-03-17T09:48:28;95067.41;;;15.22;40.51
9235;BME280;4652;42.716;23.218;2024-03-17T09:50:59;95064.78;;;14.67;40.44
9235;BME280;4652;42.716;23.218;2024-03-17T09:53:32;95060.16;;;14.45;42.96
9235;BME280;4652;42.716;23.218;2024-03-17T09:58:26;95061.94;;;14.31;42.31
9235;BME280;4652;42.716;23.218;2024-03-17T10:00:53;95060.53;;;14.38;43.24
9235;BME280;4652;42.716;23.218;2024-03-17T10:03:45;95065.47;;;14.40;42.91
9235;BME280;4652;42.716;23.218;2024-03-17T10:06:16;95064.69;;;14.39;43.48
9235;BME280;4652;42.716;23.218;2024-03-17T10:08:50;95068.22;;;14.16;44.48
9235;BME280;4652;42.716;23.218;2024-03-17T10:11:18;95065.59;;;14.16;44.81
9235;BME280;4652;42.716;23.218;2024-03-17T10:13:45;95065.66;;;14.43;44.07
9235;BME280;4652;42.716;23.218;2024-03-17T10:16:38;95072.69;;;14.62;44.21
9235;BME280;4652;42.716;23.218;2024-03-17T10:19:09;95069.25;;;14.80;43.91
9235;BME280;4652;42.716;23.218;2024-03-17T10:21:41;95067.41;;;15.22;42.58
9235;BME280;4652;42.716;23.218;2024-03-17T10:24:29;95065.78;;;15.62;40.89
9235;BME280;4652;42.716;23.218;2024-03-17T10:26:56;95064.00;;;16.22;41.32
9235;BME280;4652;42.716;23.218;2024-03-17T10:31:55;95058.50;;;16.09;37.39
9235;BME280;4652;42.716;23.218;2024-03-17T10:34:22;95055.72;;;15.92;38.99
9235;BME280;4652;42.716;23.218;2024-03-17T10:37:08;95057.75;;;15.95;39.12
9235;BME280;4652;42.716;23.218;2024-03-17T10:39:42;95058.16;;;16.56;37.83
9235;BME280;4652;42.716;23.218;2024-03-17T10:42:10;95063.75;;;16.63;38.00
9235;BME280;4652;42.716;23.218;2024-03-17T10:44:38;95066.53;;;16.36;37.92
9235;BME280;4652;42.716;23.218;2024-03-17T10:47:06;95060.31;;;16.54;37.95
9235;BME280;4652;42.716;23.218;2024-03-17T10:49:37;95054.38;;;16.71;36.34
9235;BME280;4652;42.716;23.218;2024-03-17T10:52:07;95060.63;;;16.30;36.87
9235;BME280;4652;42.716;23.218;2024-03-17T10:54:34;95050.09;;;15.99;37.72
9235;BME280;4652;42.716;23.218;2024-03-17T10:59:52;95046.00;;;16.06;35.78
9235;BME280;4652;42.716;23.218;2024-03-17T11:02:25;95049.72;;;16.14;35.88
9235;BME280;4652;42.716;23.218;2024-03-17T11:04:56;95040.56;;;16.03;34.23
9235;BME280;4652;42.716;23.218;2024-03-17T11:07:23;95041.75;;;15.97;33.94
9235;BME280;4652;42.716;23.218;2024-03-17T11:09:51;95043.00;;;16.22;35.35
9235;BME280;4652;42.716;23.218;2024-03-17T11:20:37;95036.78;;;16.18;33.45
9235;BME280;4652;42.716;23.218;2024-03-17T11:23:04;95037.09;;;16.39;33.78
9235;BME280;4652;42.716;23.218;2024-03-17T11:25:37;95033.97;;;16.37;33.56
9235;BME280;4652;42.716;23.218;2024-03-17T11:28:04;95032.81;;;15.98;34.06
9235;BME280;4652;42.716;23.218;2024-03-17T11:30:48;95026.25;;;15.36;35.78
9235;BME280;4652;42.716;23.218;2024-03-17T11:38:57;95021.47;;;16.11;33.40
9235;BME280;4652;42.716;23.218;2024-03-17T11:41:44;95030.16;;;15.89;34.45
9235;BME280;4652;42.716;23.218;2024-03-17T11:47:06;95021.72;;;16.01;35.13
9235;BME280;4652;42.716;23.218;2024-03-17T11:49:52;95023.69;;;15.95;37.09
9235;BME280;4652;42.716;23.218;2024-03-17T11:52:38;95023.94;;;15.85;35.21
9235;BME280;4652;42.716;23.218;2024-03-17T11:55:15;95021.25;;;15.76;36.54
9235;BME280;4652;42.716;23.218;2024-03-17T11:58:01;95014.16;;;15.77;35.01
9235;BME280;4652;42.716;23.218;2024-03-17T12:00:51;95016.38;;;15.47;36.38
9235;BME280;4652;42.716;23.218;2024-03-17T12:03:38;95016.75;;;15.40;36.80
9235;BME280;4652;42.716;23.218;2024-03-17T12:06:24;95015.91;;;15.31;38.21
9235;BME280;4652;42.716;23.218;2024-03-17T12:08:50;95010.41;;;15.19;39.72
9235;BME280;4652;42.716;23.218;2024-03-17T12:11:36;95014.19;;;14.72;40.97
9235;BME280;4652;42.716;23.218;2024-03-17T12:14:22;95018.16;;;14.69;41.13
9235;BME280;4652;42.716;23.218;2024-03-17T12:16:52;95015.06;;;14.20;41.57
9235;BME280;4652;42.716;23.218;2024-03-17T12:19:18;95010.53;;;14.40;42.88
9235;BME280;4652;42.716;23.218;2024-03-17T12:22:06;95007.81;;;14.64;41.61
9235;BME280;4652;42.716;23.218;2024-03-17T12:24:53;95007.16;;;14.39;42.61
9235;BME280;4652;42.716;23.218;2024-03-17T12:27:24;95012.97;;;14.50;42.86
9235;BME280;4652;42.716;23.218;2024-03-17T12:30:09;95001.19;;;14.53;43.30
9235;BME280;4652;42.716;23.218;2024-03-17T12:32:35;95010.53;;;14.40;44.54
9235;BME280;4652;42.716;23.218;2024-03-17T12:35:01;95005.25;;;14.45;45.03
9235;BME280;4652;42.716;23.218;2024-03-17T12:37:28;95006.44;;;14.53;44.79
9235;BME280;4652;42.716;23.218;2024-03-17T12:39:59;95003.06;;;14.19;45.43
9235;BME280;4652;42.716;23.218;2024-03-17T12:42:28;95007.50;;;14.19;45.91
9235;BME280;4652;42.716;23.218;2024-03-17T12:44:58;95000.41;;;14.06;46.07
9235;BME280;4652;42.716;23.218;2024-03-17T12:47:26;94995.78;;;14.16;45.84
9235;BME280;4652;42.716;23.218;2024-03-17T12:49:56;94994.72;;;14.17;45.33
9235;BME280;4652;42.716;23.218;2024-03-17T12:52:23;94997.25;;;14.22;46.39
9235;BME280;4652;42.716;23.218;2024-03-17T12:55:09;94998.94;;;14.32;45.36
9235;BME280;4652;42.716;23.218;2024-03-17T13:00:46;94989.75;;;14.48;45.26
9235;BME280;4652;42.716;23.218;2024-03-17T13:03:24;94992.75;;;14.42;46.32
9235;BME280;4652;42.716;23.218;2024-03-17T13:05:50;94991.22;;;14.55;46.64
9235;BME280;4652;42.716;23.218;2024-03-17T13:08:16;94989.50;;;14.64;46.33
9235;BME280;4652;42.716;23.218;2024-03-17T13:10:42;94993.38;;;14.66;45.33
9235;BME280;4652;42.716;23.218;2024-03-17T13:13:09;94983.31;;;14.27;47.02
9235;BME280;4652;42.716;23.218;2024-03-17T13:15:35;94986.59;;;14.19;47.22
9235;BME280;4652;42.716;23.218;2024-03-17T13:18:02;94988.91;;;14.20;47.47
9235;BME280;4652;42.716;23.218;2024-03-17T13:20:29;94988.88;;;13.93;49.08
9235;BME280;4652;42.716;23.218;2024-03-17T13:22:56;94991.38;;;13.98;48.62
9235;BME280;4652;42.716;23.218;2024-03-17T13:25:25;94996.50;;;13.89;47.49
9235;BME280;4652;42.716;23.218;2024-03-17T13:27:58;94996.59;;;13.65;49.02
9235;BME280;4652;42.716;23.218;2024-03-17T13:30:24;94991.50;;;13.74;48.05
9235;BME280;4652;42.716;23.218;2024-03-17T13:32:52;94983.94;;;13.72;47.67
9235;BME280;4652;42.716;23.218;2024-03-17T13:35:24;94989.31;;;13.43;49.64
9235;BME280;4652;42.716;23.218;2024-03-17T13:37:51;94986.75;;;13.19;49.07
9235;BME280;4652;42.716;23.218;2024-03-17T13:40:18;94982.16;;;13.11;50.85
9235;BME280;4652;42.716;23.218;2024-03-17T13:42:49;94988.78;;;13.27;51.55
9235;BME280;4652;42.716;23.218;2024-03-17T13:45:16;94978.34;;;13.27;50.47
9235;BME280;4652;42.716;23.218;2024-03-17T13:47:56;94981.56;;;13.38;50.53
9235;BME280;4652;42.716;23.218;2024-03-17T13:50:22;94974.94;;;13.46;51.04
9235;BME280;4652;42.716;23.218;2024-03-17T13:52:48;94972.81;;;13.48;50.21
9235;BME280;4652;42.716;23.218;2024-03-17T13:55:17;94969.66;;;13.51;51.03
9235;BME280;4652;42.716;23.218;2024-03-17T13:57:53;94967.31;;;13.30;51.18
9235;BME280;4652;42.716;23.218;2024-03-17T14:03:44;94967.41;;;13.25;51.35
9235;BME280;4652;42.716;23.218;2024-03-17T14:06:11;94967.19;;;12.98;52.76
9235;BME280;4652;42.716;23.218;2024-03-17T14:08:37;94964.94;;;13.10;52.40
9235;BME280;4652;42.716;23.218;2024-03-17T14:11:02;94958.81;;;13.01;53.25
9235;BME280;4652;42.716;23.218;2024-03-17T14:13:29;94960.81;;;13.09;52.62
9235;BME280;4652;42.716;23.218;2024-03-17T14:15:58;94957.94;;;12.87;53.56
9235;BME280;4652;42.716;23.218;2024-03-17T14:18:24;94959.56;;;13.01;52.22
9235;BME280;4652;42.716;23.218;2024-03-17T14:20:50;94952.81;;;13.00;51.65
9235;BME280;4652;42.716;23.218;2024-03-17T14:23:16;94959.88;;;13.00;52.60
9235;BME280;4652;42.716;23.218;2024-03-17T14:25:42;94956.28;;;13.15;54.10
9235;BME280;4652;42.716;23.218;2024-03-17T14:28:08;94957.22;;;13.05;54.05
9235;BME280;4652;42.716;23.218;2024-03-17T14:30:34;94952.69;;;13.11;54.56
9235;BME280;4652;42.716;23.218;2024-03-17T14:33:00;94955.72;;;12.99;54.72
9235;BME280;4652;42.716;23.218;2024-03-17T14:35:25;94957.22;;;13.05;53.50
9235;BME280;4652;42.716;23.218;2024-03-17T14:37:53;94953.75;;;13.10;54.46
9235;BME280;4652;42.716;23.218;2024-03-17T14:40:19;94950.06;;;13.11;53.21
9235;BME280;4652;42.716;23.218;2024-03-17T14:42:50;94950.38;;;13.09;53.80
9235;BME280;4652;42.716;23.218;2024-03-17T14:45:19;94947.31;;;13.21;53.96